This is the latest recevied weather packets stored in our database for station/object KA3RQR. If no packets are shown the sender has not sent any weather packets the latest 10 day(s).
| Time | Temp. | Humidity | Pressure | Rain* | Wind** | Luminosity | Snow |
|---|---|---|---|---|---|---|---|
| 1778024708 | 25.56° C | 33% | 1009.6 hPa | 0 mm | - | 5 W/m² | - |
| 1778024405 | 25.56° C | 33% | 1009.7 hPa | 0 mm | - | 6 W/m² | - |
| 1778024103 | 25.56° C | 32% | 1009.7 hPa | 0 mm | - | 9 W/m² | - |
| 1778023800 | 25.56° C | 35% | 1009.6 hPa | 0 mm | - | 16 W/m² | - |
| 1778023498 | 25.56° C | 33% | 1009.4 hPa | 0 mm | - | 26 W/m² | - |
| 1778023195 | 26.11° C | 34% | 1009.6 hPa | 0 mm | - | 36 W/m² | - |
| 1778022892 | 26.11° C | 34% | 1009.6 hPa | 0 mm | - | 35 W/m² | - |
| 1778022590 | 26.11° C | 33% | 1009.6 hPa | 0 mm | - | 31 W/m² | - |
| 1778022288 | 25.56° C | 35% | 1009.5 hPa | 0 mm | - | 31 W/m² | - |
| 1778021984 | 26.11° C | 33% | 1009.7 hPa | 0 mm | - | 32 W/m² | - |
| 1778021681 | 26.11° C | 33% | 1009.9 hPa | 0 mm | - | 45 W/m² | - |
| 1778021377 | 26.67° C | 32% | 1009.6 hPa | 0 mm | - | 57 W/m² | - |
| 1778021074 | 26.67° C | 32% | 1009.6 hPa | 0 mm | - | 109 W/m² | - |
| 1778020771 | 26.67° C | 31% | 1009.6 hPa | 0 mm | - | 142 W/m² | - |
| 1778020468 | 26.67° C | 31% | 1009.5 hPa | 0 mm | - | 83 W/m² | - |
| 1778020164 | 26.67° C | 32% | 1009.7 hPa | 0 mm | - | 72 W/m² | - |
| 1778019860 | 26.67° C | 31% | 1009.6 hPa | 0 mm | - | 111 W/m² | - |
| 1778019556 | 26.67° C | 30% | 1009.5 hPa | 0 mm | - | 67 W/m² | - |
| 1778019254 | 26.67° C | 31% | 1009.7 hPa | 0 mm | - | 53 W/m² | - |
| 1778018951 | 26.67° C | 31% | 1009.6 hPa | 0 mm | - | 58 W/m² | - |
| 1778018648 | 26.67° C | 31% | 1009.5 hPa | 0 mm | - | 70 W/m² | - |
| 1778018346 | 27.22° C | 31% | 1009.5 hPa | 0 mm | - | 85 W/m² | - |
| 1778018043 | 27.78° C | 30% | 1009.6 hPa | 0 mm | - | 234 W/m² | - |
| 1778017741 | 27.22° C | 30% | 1009.5 hPa | 0 mm | - | 96 W/m² | - |
| 1778017439 | 27.78° C | 31% | 1009.4 hPa | 0 mm | - | 193 W/m² | - |
* Rain latest hour (hover to see other rain measurements)
** Current wind speed in m/s (hover to see current wind gust speed)